Time;durP1;ratioP1;P1;durP2;ratioP2;P2;SDS_P1;SDS_P2;PMS_P1;PMS_P2;Temp;Humidity;BMP_temperature;BMP_pressure;BME280_temperature;BME280_humidity;BME280_pressure;Samples;Min_cycle;Max_cycle;Signal;HPM_P1;HPM_P2
2022/04/24 00:00:57;;;;;;;22.92;13.45;;;;;;;;;;5069965;28;20048;-69
2022/04/24 00:04:01;;;;;;;22.58;14.35;;;;;;;;;;5070349;28;20301;-69
2022/04/24 00:07:08;;;;;;;20.92;13.55;;;;;;;;;;5070232;28;20051;-69
2022/04/24 00:10:12;;;;;;;23.10;14.30;;;;;;;;;;5070383;28;20400;-69
2022/04/24 00:13:17;;;;;;;33.90;15.90;;;;;;;;;;5070785;28;20055;-69
2022/04/24 00:16:21;;;;;;;23.13;15.30;;;;;;;;;;5070636;28;20047;-69
2022/04/24 00:19:25;;;;;;;22.48;13.88;;;;;;;;;;5070660;28;20047;-69
2022/04/24 00:22:29;;;;;;;23.38;14.52;;;;;;;;;;5070313;28;20062;-69
2022/04/24 00:25:33;;;;;;;23.48;13.95;;;;;;;;;;5070396;28;20594;-69
2022/04/24 00:28:38;;;;;;;33.28;16.42;;;;;;;;;;5070375;28;20051;-69
2022/04/24 00:31:42;;;;;;;25.08;16.27;;;;;;;;;;5070444;28;20047;-69
2022/04/24 00:34:46;;;;;;;38.67;23.90;;;;;;;;;;5057987;28;20067;-69
2022/04/24 00:37:51;;;;;;;41.63;23.88;;;;;;;;;;5070293;28;20044;-69
2022/04/24 00:40:56;;;;;;;29.20;18.75;;;;;;;;;;5073986;28;20051;-69
2022/04/24 00:44:01;;;;;;;27.02;17.05;;;;;;;;;;5073895;28;20048;-69
2022/04/24 00:47:25;;;;;;;24.10;15.00;;;;;;;;;;5073651;28;20048;-69
2022/04/24 00:50:29;;;;;;;25.23;13.35;;;;;;;;;;5073710;28;20048;-69
2022/04/24 00:53:34;;;;;;;21.60;13.20;;;;;;;;;;5073865;28;20293;-69
2022/04/24 00:56:39;;;;;;;29.33;14.07;;;;;;;;;;5073789;28;20044;-69
2022/04/24 00:59:43;;;;;;;26.17;13.85;;;;;;;;;;5072952;28;20036;-69
2022/04/24 01:02:47;;;;;;;31.30;14.32;;;;;;;;;;5073825;28;20055;-69
2022/04/24 01:05:51;;;;;;;23.25;13.88;;;;;;;;;;5073819;28;20051;-69
2022/04/24 01:08:56;;;;;;;23.80;14.70;;;;;;;;;;5073734;28;20174;-69
2022/04/24 01:12:01;;;;;;;23.42;14.25;;;;;;;;;;5073600;28;20503;-70
2022/04/24 01:15:05;;;;;;;29.45;15.00;;;;;;;;;;5073433;28;20040;-69
2022/04/24 01:18:10;;;;;;;28.63;14.80;;;;;;;;;;5072679;28;20499;-69
2022/04/24 01:21:15;;;;;;;37.95;14.95;;;;;;;;;;5073296;28;20499;-69
2022/04/24 01:24:20;;;;;;;27.27;15.23;;;;;;;;;;5073382;28;20499;-69
2022/04/24 01:27:24;;;;;;;30.45;14.82;;;;;;;;;;5073031;28;20051;-69
2022/04/24 01:30:29;;;;;;;29.55;15.93;;;;;;;;;;5073110;28;20392;-69
2022/04/24 01:33:33;;;;;;;29.05;15.25;;;;;;;;;;5073041;28;20056;-69
2022/04/24 01:36:37;;;;;;;27.80;15.68;;;;;;;;;;5072957;28;20047;-71
2022/04/24 01:39:42;;;;;;;26.42;16.80;;;;;;;;;;5072835;28;20055;-70
2022/04/24 01:42:46;;;;;;;33.17;15.43;;;;;;;;;;5072807;28;20044;-69
2022/04/24 01:45:50;;;;;;;41.88;16.38;;;;;;;;;;5072523;28;20102;-69
2022/04/24 01:48:54;;;;;;;27.20;15.93;;;;;;;;;;5072878;28;20495;-69
2022/04/24 01:51:59;;;;;;;30.73;18.27;;;;;;;;;;5072183;28;20043;-69
2022/04/24 01:55:03;;;;;;;35.70;17.05;;;;;;;;;;5072242;28;20205;-69
2022/04/24 01:58:07;;;;;;;30.33;16.58;;;;;;;;;;5072656;28;20039;-69
2022/04/24 02:01:12;;;;;;;25.05;15.60;;;;;;;;;;5072322;28;20048;-69
2022/04/24 02:04:19;;;;;;;25.80;16.70;;;;;;;;;;5071658;28;20534;-69
2022/04/24 02:07:23;;;;;;;28.73;17.13;;;;;;;;;;5071796;28;20047;-69
2022/04/24 02:10:28;;;;;;;32.78;17.17;;;;;;;;;;5072291;28;20412;-69
2022/04/24 02:13:32;;;;;;;23.60;15.38;;;;;;;;;;5072403;28;20051;-69
2022/04/24 02:16:37;;;;;;;31.13;17.23;;;;;;;;;;5071060;28;20056;-69
2022/04/24 02:19:41;;;;;;;26.52;16.98;;;;;;;;;;5072090;28;20063;-69
2022/04/24 02:22:45;;;;;;;27.60;17.25;;;;;;;;;;5072245;28;20396;-69
2022/04/24 02:25:50;;;;;;;25.35;15.95;;;;;;;;;;5071779;28;20063;-69
2022/04/24 02:28:55;;;;;;;23.08;15.32;;;;;;;;;;5070999;28;20508;-69
2022/04/24 02:31:59;;;;;;;25.83;16.02;;;;;;;;;;5072060;28;20048;-69
2022/04/24 02:35:03;;;;;;;28.15;18.15;;;;;;;;;;5071778;28;20055;-69
2022/04/24 02:38:08;;;;;;;28.15;16.83;;;;;;;;;;5071521;28;20503;-69
2022/04/24 02:41:12;;;;;;;27.02;16.45;;;;;;;;;;5071792;28;20043;-69
2022/04/24 02:44:16;;;;;;;30.63;16.05;;;;;;;;;;5071489;28;20086;-70
2022/04/24 02:47:20;;;;;;;20.10;14.40;;;;;;;;;;5071679;28;20397;-69
2022/04/24 02:50:25;;;;;;;32.55;15.45;;;;;;;;;;5071540;28;20055;-69
2022/04/24 02:53:29;;;;;;;28.10;15.00;;;;;;;;;;5071425;28;20543;-69
2022/04/24 02:56:33;;;;;;;25.17;14.25;;;;;;;;;;5071352;28;20040;-69
2022/04/24 02:59:42;;;;;;;24.48;14.98;;;;;;;;;;5070752;28;20047;-69
2022/04/24 03:02:46;;;;;;;22.15;15.00;;;;;;;;;;5071119;28;20047;-69
2022/04/24 03:05:51;;;;;;;25.40;15.75;;;;;;;;;;5070327;28;20056;-69
2022/04/24 03:08:55;;;;;;;27.05;14.65;;;;;;;;;;5070652;28;20052;-69
2022/04/24 03:11:59;;;;;;;21.75;14.70;;;;;;;;;;5071309;28;20043;-69
2022/04/24 03:15:04;;;;;;;23.35;14.65;;;;;;;;;;5070506;28;20511;-69
2022/04/24 03:18:09;;;;;;;24.50;14.77;;;;;;;;;;5071072;28;20043;-69
2022/04/24 03:21:13;;;;;;;23.52;14.93;;;;;;;;;;5071307;28;20047;-69
2022/04/24 03:24:17;;;;;;;23.67;14.15;;;;;;;;;;5071111;28;20039;-69
2022/04/24 03:27:22;;;;;;;18.75;13.65;;;;;;;;;;5071516;28;20059;-69
2022/04/24 03:30:26;;;;;;;25.30;13.90;;;;;;;;;;5070954;28;20053;-69
2022/04/24 03:33:31;;;;;;;24.27;14.90;;;;;;;;;;5070701;28;20040;-69
2022/04/24 03:36:35;;;;;;;20.48;13.15;;;;;;;;;;5069989;28;20118;-69
2022/04/24 03:39:39;;;;;;;23.77;14.02;;;;;;;;;;5070005;28;20400;-69
2022/04/24 03:42:44;;;;;;;25.55;14.30;;;;;;;;;;5070772;28;20051;-69
2022/04/24 03:45:48;;;;;;;26.40;14.63;;;;;;;;;;5070643;28;20051;-69
2022/04/24 03:48:52;;;;;;;25.42;14.20;;;;;;;;;;5071018;28;20040;-69
2022/04/24 03:51:57;;;;;;;21.25;14.35;;;;;;;;;;5070953;28;20052;-69
2022/04/24 03:55:01;;;;;;;25.27;15.30;;;;;;;;;;5070722;28;20118;-69
2022/04/24 03:58:05;;;;;;;22.90;14.68;;;;;;;;;;5058581;28;20095;-69
2022/04/24 04:01:12;;;;;;;23.85;15.55;;;;;;;;;;5070889;28;20475;-69
2022/04/24 04:04:16;;;;;;;23.00;15.63;;;;;;;;;;5070764;28;20047;-69
2022/04/24 04:07:21;;;;;;;21.60;14.52;;;;;;;;;;5070457;28;20047;-69
2022/04/24 04:10:25;;;;;;;23.83;15.30;;;;;;;;;;5058324;28;20047;-69
2022/04/24 04:13:30;;;;;;;26.17;15.40;;;;;;;;;;5071646;28;20286;-69
2022/04/24 04:16:34;;;;;;;22.52;15.02;;;;;;;;;;5074421;28;20047;-69
2022/04/24 04:19:39;;;;;;;24.42;15.82;;;;;;;;;;5074069;28;20043;-69
2022/04/24 04:22:51;;;;;;;26.85;15.18;;;;;;;;;;5074022;28;20392;-69
2022/04/24 04:25:56;;;;;;;22.88;16.38;;;;;;;;;;5072915;28;20193;-69
2022/04/24 04:29:01;;;;;;;26.92;16.13;;;;;;;;;;5074426;28;20044;-69
2022/04/24 04:32:05;;;;;;;25.13;15.75;;;;;;;;;;5073870;28;20051;-69
2022/04/24 04:35:09;;;;;;;34.85;17.40;;;;;;;;;;5074026;28;20408;-69
2022/04/24 04:38:14;;;;;;;29.33;16.48;;;;;;;;;;5073993;28;20044;-69
2022/04/24 04:41:19;;;;;;;32.15;17.35;;;;;;;;;;5073981;28;20503;-69
2022/04/24 04:44:23;;;;;;;37.58;17.55;;;;;;;;;;5074005;28;20043;-69
2022/04/24 04:47:27;;;;;;;34.65;16.83;;;;;;;;;;5073895;28;20051;-69
2022/04/24 04:50:32;;;;;;;26.45;16.83;;;;;;;;;;5073756;28;20059;-69
2022/04/24 04:53:36;;;;;;;27.27;17.02;;;;;;;;;;5073729;28;20048;-69
2022/04/24 04:56:40;;;;;;;26.60;16.05;;;;;;;;;;5073556;28;20427;-69
2022/04/24 04:59:45;;;;;;;23.90;14.98;;;;;;;;;;5072755;28;20055;-69
2022/04/24 05:02:49;;;;;;;25.15;15.50;;;;;;;;;;5072852;28;20051;-69
2022/04/24 05:05:54;;;;;;;25.45;16.42;;;;;;;;;;5073491;28;20052;-69
2022/04/24 05:08:58;;;;;;;25.08;16.80;;;;;;;;;;5072411;28;20059;-69
2022/04/24 05:12:03;;;;;;;27.15;16.83;;;;;;;;;;5073231;28;20051;-69
2022/04/24 05:15:08;;;;;;;27.30;16.17;;;;;;;;;;5073535;28;20044;-69
2022/04/24 05:18:12;;;;;;;27.05;15.70;;;;;;;;;;5072969;28;20499;-69
2022/04/24 05:21:17;;;;;;;23.15;15.18;;;;;;;;;;5073171;28;20293;-69
2022/04/24 05:24:21;;;;;;;22.92;13.88;;;;;;;;;;5072664;28;20055;-69
2022/04/24 05:27:26;;;;;;;25.63;14.88;;;;;;;;;;5072919;28;20052;-69
2022/04/24 05:30:30;;;;;;;32.35;15.27;;;;;;;;;;5072924;28;20048;-69
2022/04/24 05:33:34;;;;;;;27.10;17.60;;;;;;;;;;5072350;28;20044;-69
2022/04/24 05:36:39;;;;;;;27.65;18.48;;;;;;;;;;5072605;28;20539;-69
2022/04/24 05:39:43;;;;;;;26.88;17.63;;;;;;;;;;5073135;28;20055;-69
2022/04/24 05:42:49;;;;;;;30.00;18.02;;;;;;;;;;5072985;28;20047;-69
2022/04/24 05:45:53;;;;;;;29.75;20.00;;;;;;;;;;5071810;28;20123;-69
2022/04/24 05:49:00;;;;;;;33.78;19.23;;;;;;;;;;5072886;28;20036;-69
2022/04/24 05:52:05;;;;;;;32.10;20.65;;;;;;;;;;5072622;28;20047;-69
2022/04/24 05:55:10;;;;;;;33.05;20.60;;;;;;;;;;5072564;28;20044;-69
2022/04/24 05:58:14;;;;;;;29.70;19.05;;;;;;;;;;5072543;28;20115;-69
2022/04/24 06:01:18;;;;;;;28.70;17.90;;;;;;;;;;5072430;28;20044;-69
2022/04/24 06:04:23;;;;;;;28.52;17.15;;;;;;;;;;5072421;28;20063;-69
2022/04/24 06:07:27;;;;;;;22.67;16.13;;;;;;;;;;5072101;28;20056;-69
2022/04/24 06:10:31;;;;;;;28.85;17.25;;;;;;;;;;5072209;28;20047;-69
2022/04/24 06:13:36;;;;;;;28.08;16.60;;;;;;;;;;5071949;28;20039;-69
2022/04/24 06:16:40;;;;;;;28.27;16.67;;;;;;;;;;5072569;28;20043;-68
2022/04/24 06:19:44;;;;;;;32.30;16.88;;;;;;;;;;5071262;28;20043;-69
2022/04/24 06:22:59;;;;;;;27.13;14.77;;;;;;;;;;5071896;28;20503;-69
2022/04/24 06:26:03;;;;;;;19.65;12.02;;;;;;;;;;5071734;28;20067;-62
2022/04/24 06:29:07;;;;;;;15.80;10.18;;;;;;;;;;5072065;28;20036;-62
2022/04/24 06:32:11;;;;;;;14.18;8.90;;;;;;;;;;5071903;28;20400;-63
2022/04/24 06:35:17;;;;;;;15.82;8.52;;;;;;;;;;5071562;28;20289;-63
2022/04/24 06:38:22;;;;;;;11.82;7.05;;;;;;;;;;5071661;28;20047;-63
2022/04/24 06:41:27;;;;;;;9.38;5.93;;;;;;;;;;5071350;28;20400;-63
2022/04/24 06:44:31;;;;;;;16.42;6.78;;;;;;;;;;5071660;28;20048;-63
2022/04/24 06:47:35;;;;;;;12.43;5.40;;;;;;;;;;5071606;28;20349;-63
2022/04/24 06:50:41;;;;;;;10.88;4.97;;;;;;;;;;5071435;28;20056;-64
2022/04/24 06:53:46;;;;;;;8.68;4.72;;;;;;;;;;5071623;28;20047;-63
2022/04/24 06:56:50;;;;;;;11.82;5.22;;;;;;;;;;5071442;28;20041;-63
2022/04/24 06:59:54;;;;;;;13.85;5.75;;;;;;;;;;5071210;28;20043;-63
2022/04/24 07:02:59;;;;;;;13.68;4.85;;;;;;;;;;5071566;28;20048;-63
2022/04/24 07:06:03;;;;;;;15.27;5.43;;;;;;;;;;5071174;28;20055;-63
2022/04/24 07:09:08;;;;;;;13.45;4.90;;;;;;;;;;5071012;28;20424;-63
2022/04/24 07:12:12;;;;;;;17.65;5.40;;;;;;;;;;5071434;28;20043;-64
2022/04/24 07:15:18;;;;;;;16.67;3.78;;;;;;;;;;5071077;28;20043;-64
2022/04/24 07:18:23;;;;;;;17.58;4.00;;;;;;;;;;5071165;28;20078;-64
2022/04/24 07:21:27;;;;;;;10.55;2.90;;;;;;;;;;5071602;28;20047;-64
2022/04/24 07:24:31;;;;;;;13.23;2.95;;;;;;;;;;5070975;28;20050;-64
2022/04/24 07:27:35;;;;;;;10.77;3.13;;;;;;;;;;5071103;28;20400;-64
2022/04/24 07:30:40;;;;;;;9.50;2.90;;;;;;;;;;5071288;28;20051;-63
2022/04/24 07:33:44;;;;;;;14.48;3.22;;;;;;;;;;5072064;28;20045;-64
2022/04/24 07:36:48;;;;;;;10.82;3.65;;;;;;;;;;5070988;28;20056;-63
2022/04/24 07:39:53;;;;;;;12.52;3.03;;;;;;;;;;5070944;28;20039;-64
2022/04/24 07:42:58;;;;;;;13.52;2.90;;;;;;;;;;5071018;28;20047;-63
2022/04/24 07:46:02;;;;;;;17.08;3.55;;;;;;;;;;5070110;28;20060;-63
2022/04/24 07:49:07;;;;;;;14.70;3.50;;;;;;;;;;5073214;28;20115;-63
2022/04/24 07:52:11;;;;;;;20.27;2.63;;;;;;;;;;5075049;28;20051;-63
2022/04/24 07:55:19;;;;;;;18.23;2.72;;;;;;;;;;5075031;28;20190;-63
2022/04/24 07:58:24;;;;;;;16.30;3.00;;;;;;;;;;5074664;28;20400;-64
2022/04/24 08:01:28;;;;;;;17.98;3.10;;;;;;;;;;5074554;28;20040;-64
2022/04/24 08:04:33;;;;;;;15.98;3.47;;;;;;;;;;5074002;28;20487;-64
2022/04/24 08:07:37;;;;;;;12.05;3.10;;;;;;;;;;5074117;28;20059;-62
2022/04/24 08:10:42;;;;;;;15.40;3.40;;;;;;;;;;5074152;28;20040;-64
2022/04/24 08:13:46;;;;;;;16.27;3.20;;;;;;;;;;5074619;28;20043;-63
2022/04/24 08:16:51;;;;;;;13.70;3.38;;;;;;;;;;5074055;28;20044;-63
2022/04/24 08:19:55;;;;;;;18.60;4.20;;;;;;;;;;5074303;28;20420;-63
2022/04/24 08:23:01;;;;;;;14.73;3.85;;;;;;;;;;5074655;28;20488;-63
2022/04/24 08:26:07;;;;;;;21.75;4.95;;;;;;;;;;5073871;28;20052;-63
2022/04/24 08:29:12;;;;;;;15.43;4.45;;;;;;;;;;5073986;28;20388;-63
2022/04/24 08:32:20;;;;;;;15.63;4.55;;;;;;;;;;5074100;28;20055;-63
2022/04/24 08:35:24;;;;;;;9.45;4.00;;;;;;;;;;5074142;28;20059;-63
2022/04/24 08:38:29;;;;;;;17.70;4.38;;;;;;;;;;5073480;28;20036;-63
2022/04/24 08:41:36;;;;;;;14.98;3.33;;;;;;;;;;5073608;28;20052;-63
2022/04/24 08:44:41;;;;;;;14.07;3.72;;;;;;;;;;5073767;28;20051;-63
2022/04/24 08:47:46;;;;;;;23.77;3.35;;;;;;;;;;5072579;28;20056;-64
2022/04/24 08:50:50;;;;;;;20.13;3.40;;;;;;;;;;5073871;28;20044;-63
2022/04/24 08:53:55;;;;;;;21.15;4.45;;;;;;;;;;5073850;28;20051;-63
2022/04/24 08:56:59;;;;;;;20.77;3.50;;;;;;;;;;5072708;28;20396;-63
2022/04/24 09:00:07;;;;;;;32.38;3.67;;;;;;;;;;5073433;28;20047;-63
2022/04/24 09:03:11;;;;;;;28.52;3.45;;;;;;;;;;5073538;28;20043;-63
2022/04/24 09:06:22;;;;;;;25.05;3.97;;;;;;;;;;5073063;28;20448;-63
2022/04/24 09:09:27;;;;;;;21.20;3.45;;;;;;;;;;5073206;28;20052;-64
2022/04/24 09:12:32;;;;;;;17.65;3.80;;;;;;;;;;5073510;28;20051;-64
2022/04/24 09:15:37;;;;;;;19.75;3.92;;;;;;;;;;5072526;28;20039;-63
2022/04/24 09:18:41;;;;;;;26.52;3.78;;;;;;;;;;5073146;28;20039;-65
2022/04/24 09:22:06;;;;;;;30.35;4.60;;;;;;;;;;5073053;28;20043;-63
2022/04/24 09:25:12;;;;;;;29.50;4.60;;;;;;;;;;5073216;28;20281;-63
2022/04/24 09:28:16;;;;;;;17.13;3.42;;;;;;;;;;5073094;28;20059;-64
2022/04/24 09:31:20;;;;;;;26.30;3.20;;;;;;;;;;5072694;28;20048;-63
2022/04/24 09:34:30;;;;;;;26.83;3.92;;;;;;;;;;5072832;28;20059;-63
2022/04/24 09:37:41;;;;;;;32.85;4.30;;;;;;;;;;5072640;28;20051;-63
2022/04/24 09:40:46;;;;;;;28.85;4.18;;;;;;;;;;5072851;28;20044;-65
2022/04/24 09:43:51;;;;;;;28.05;3.83;;;;;;;;;;5072511;28;20531;-64
2022/04/24 09:46:59;;;;;;;31.90;4.25;;;;;;;;;;5072616;28;20062;-63
2022/04/24 09:50:09;;;;;;;28.60;7.20;;;;;;;;;;5072549;28;20194;-63
2022/04/24 09:53:15;;;;;;;27.15;4.65;;;;;;;;;;5072322;28;20052;-63
2022/04/24 09:56:20;;;;;;;46.15;6.07;;;;;;;;;;5072339;28;20036;-63
2022/04/24 09:59:25;;;;;;;33.00;6.60;;;;;;;;;;5072969;28;20055;-63
2022/04/24 10:02:30;;;;;;;40.88;4.72;;;;;;;;;;5072241;28;20388;-64
2022/04/24 10:05:37;;;;;;;32.45;4.60;;;;;;;;;;5071459;28;20511;-64
2022/04/24 10:08:43;;;;;;;31.02;4.95;;;;;;;;;;5071937;28;20063;-64
2022/04/24 10:11:47;;;;;;;35.55;4.47;;;;;;;;;;5071278;28;20051;-63
2022/04/24 10:14:51;;;;;;;32.33;4.25;;;;;;;;;;5071905;28;20044;-63
2022/04/24 10:18:02;;;;;;;35.03;4.50;;;;;;;;;;5071666;28;20086;-63
2022/04/24 10:21:15;;;;;;;21.15;5.95;;;;;;;;;;5071330;28;20631;-63
2022/04/24 10:24:20;;;;;;;32.88;9.13;;;;;;;;;;5071959;28;20039;-64
2022/04/24 10:27:35;;;;;;;34.10;5.45;;;;;;;;;;5071608;28;20314;-63
2022/04/24 10:30:40;;;;;;;30.17;4.97;;;;;;;;;;5059591;28;20051;-63
2022/04/24 10:33:55;;;;;;;21.02;4.32;;;;;;;;;;5071833;28;20507;-63
2022/04/24 10:37:01;;;;;;;24.08;3.55;;;;;;;;;;5071413;28;20044;-63
2022/04/24 10:40:12;;;;;;;21.65;3.75;;;;;;;;;;5071330;28;20048;-62
2022/04/24 10:43:21;;;;;;;21.45;3.47;;;;;;;;;;5071213;28;20061;-63
2022/04/24 10:46:26;;;;;;;27.50;3.95;;;;;;;;;;5071229;28;20063;-62
2022/04/24 10:49:35;;;;;;;27.88;4.70;;;;;;;;;;5071353;28;20119;-63
2022/04/24 10:52:40;;;;;;;18.00;3.00;;;;;;;;;;5071394;28;20396;-63
2022/04/24 10:55:44;;;;;;;24.40;4.20;;;;;;;;;;5070914;28;20523;-63
2022/04/24 10:58:50;;;;;;;17.90;2.95;;;;;;;;;;5071104;28;20047;-63
2022/04/24 11:01:56;;;;;;;26.30;3.97;;;;;;;;;;5071207;28;20114;-62
2022/04/24 11:05:02;;;;;;;23.42;4.65;;;;;;;;;;5071241;28;20507;-63
2022/04/24 11:08:07;;;;;;;18.27;3.45;;;;;;;;;;5058697;28;20051;-63
2022/04/24 11:11:14;;;;;;;24.88;3.22;;;;;;;;;;5070990;28;20416;-63
2022/04/24 11:14:20;;;;;;;20.55;3.75;;;;;;;;;;5071183;28;20055;-63
2022/04/24 11:17:24;;;;;;;23.77;3.83;;;;;;;;;;5070843;28;20117;-63
2022/04/24 11:20:31;;;;;;;23.60;4.60;;;;;;;;;;5071426;28;20063;-63
2022/04/24 11:23:40;;;;;;;16.02;4.18;;;;;;;;;;5070659;28;20385;-64
2022/04/24 11:26:48;;;;;;;24.38;3.38;;;;;;;;;;5070769;28;20051;-63
2022/04/24 11:29:52;;;;;;;21.98;3.70;;;;;;;;;;5070808;28;20057;-63
2022/04/24 11:33:04;;;;;;;28.23;4.50;;;;;;;;;;5069994;28;20056;-63
2022/04/24 11:36:08;;;;;;;29.90;4.95;;;;;;;;;;5070894;28;20056;-63
2022/04/24 11:39:13;;;;;;;32.78;5.95;;;;;;;;;;5071122;28;20055;-63
2022/04/24 11:42:17;;;;;;;23.77;4.80;;;;;;;;;;5069979;28;20052;-63
2022/04/24 11:52:08;;;;;;;35.00;8.32;;;;;;;;;;5070632;28;20675;-63
2022/04/24 11:55:17;;;;;;;38.78;6.25;;;;;;;;;;5070462;28;20045;-63
2022/04/24 11:58:24;;;;;;;30.45;5.65;;;;;;;;;;5070817;28;20119;-63
2022/04/24 12:01:28;;;;;;;31.58;5.60;;;;;;;;;;5070811;28;20491;-63
2022/04/24 12:04:38;;;;;;;24.52;4.15;;;;;;;;;;5070857;28;20051;-63
2022/04/24 12:07:42;;;;;;;24.58;4.43;;;;;;;;;;5069895;28;20071;-63
2022/04/24 12:10:47;;;;;;;29.33;4.55;;;;;;;;;;5071162;28;20511;-63
2022/04/24 12:13:59;;;;;;;32.33;4.50;;;;;;;;;;5070556;28;20043;-63
2022/04/24 12:17:06;;;;;;;22.05;3.90;;;;;;;;;;5070568;28;20048;-63
2022/04/24 12:20:10;;;;;;;25.77;3.88;;;;;;;;;;5069716;28;20083;-64
2022/04/24 12:23:16;;;;;;;23.00;5.63;;;;;;;;;;5070853;28;20048;-63
2022/04/24 12:26:20;;;;;;;17.45;3.40;;;;;;;;;;5070266;28;20047;-63
2022/04/24 12:29:25;;;;;;;26.88;3.97;;;;;;;;;;5070371;28;20043;-63
2022/04/24 12:32:29;;;;;;;23.48;3.83;;;;;;;;;;5070479;28;20044;-62
2022/04/24 12:35:34;;;;;;;26.92;4.53;;;;;;;;;;5073367;28;20051;-63
2022/04/24 12:38:38;;;;;;;22.80;3.83;;;;;;;;;;5073885;28;20491;-63
2022/04/24 12:41:43;;;;;;;37.15;5.60;;;;;;;;;;5074180;28;20040;-63
2022/04/24 12:44:47;;;;;;;19.40;4.28;;;;;;;;;;5074085;28;20088;-63
2022/04/24 12:47:52;;;;;;;17.95;3.00;;;;;;;;;;5073614;28;20059;-63
2022/04/24 12:50:56;;;;;;;16.98;3.28;;;;;;;;;;5073114;28;20527;-64
2022/04/24 12:54:01;;;;;;;21.67;5.18;;;;;;;;;;5073012;28;20047;-63
2022/04/24 12:57:06;;;;;;;30.55;4.07;;;;;;;;;;5073624;28;20036;-64
2022/04/24 13:00:11;;;;;;;17.13;2.78;;;;;;;;;;5073530;28;20238;-63
2022/04/24 13:03:16;;;;;;;19.60;3.13;;;;;;;;;;5073784;28;20371;-63
2022/04/24 13:06:20;;;;;;;22.23;3.63;;;;;;;;;;5073334;28;20039;-63
2022/04/24 13:09:26;;;;;;;14.23;3.33;;;;;;;;;;5073541;28;20067;-63
2022/04/24 13:12:31;;;;;;;20.85;3.38;;;;;;;;;;5073685;28;20051;-63
2022/04/24 13:15:35;;;;;;;16.27;1.98;;;;;;;;;;5073492;28;20051;-63
2022/04/24 13:18:39;;;;;;;15.85;2.90;;;;;;;;;;5060846;28;20158;-64
2022/04/24 13:21:44;;;;;;;10.35;1.98;;;;;;;;;;5073189;28;20051;-63
2022/04/24 13:24:48;;;;;;;12.10;2.33;;;;;;;;;;5073306;28;20039;-63
2022/04/24 13:27:52;;;;;;;11.10;2.55;;;;;;;;;;5072875;28;20055;-63
2022/04/24 13:30:57;;;;;;;13.48;2.05;;;;;;;;;;5072537;28;20044;-63
2022/04/24 13:34:01;;;;;;;9.20;1.70;;;;;;;;;;5073130;28;20039;-64
2022/04/24 13:40:30;;;;;;;8.10;2.03;;;;;;;;;;5072849;28;20040;-63
2022/04/24 13:43:34;;;;;;;7.45;1.60;;;;;;;;;;5073132;28;20036;-63
2022/04/24 13:46:39;;;;;;;9.60;2.15;;;;;;;;;;5071246;28;20045;-63
2022/04/24 13:49:45;;;;;;;11.93;2.22;;;;;;;;;;5072864;28;20361;-63
2022/04/24 13:52:49;;;;;;;14.20;2.90;;;;;;;;;;5071814;28;20059;-63
2022/04/24 13:55:54;;;;;;;15.63;3.47;;;;;;;;;;5072222;28;20044;-64
2022/04/24 13:58:58;;;;;;;16.45;3.03;;;;;;;;;;5072557;28;20043;-63
2022/04/24 14:02:06;;;;;;;13.60;2.80;;;;;;;;;;5072459;28;20043;-63
2022/04/24 14:05:11;;;;;;;11.27;2.60;;;;;;;;;;5072626;28;20056;-63
2022/04/24 14:08:16;;;;;;;9.23;2.00;;;;;;;;;;5072019;28;20075;-64
2022/04/24 14:11:21;;;;;;;7.70;1.85;;;;;;;;;;5072232;28;20033;-63
2022/04/24 14:14:25;;;;;;;14.00;2.35;;;;;;;;;;5072144;28;20041;-63
2022/04/24 14:17:29;;;;;;;10.82;2.35;;;;;;;;;;5072261;28;20039;-63
2022/04/24 14:20:33;;;;;;;8.60;1.98;;;;;;;;;;5072290;28;20048;-63
2022/04/24 14:23:38;;;;;;;10.73;1.60;;;;;;;;;;5071067;28;20028;-63
2022/04/24 14:26:42;;;;;;;6.63;2.17;;;;;;;;;;5071628;28;20412;-63
2022/04/24 14:29:47;;;;;;;10.43;2.13;;;;;;;;;;5071848;28;20226;-63
2022/04/24 14:32:51;;;;;;;8.82;2.05;;;;;;;;;;5071953;28;20047;-63
2022/04/24 14:35:55;;;;;;;10.65;2.15;;;;;;;;;;5071920;28;20036;-63
2022/04/24 14:38:59;;;;;;;11.02;1.75;;;;;;;;;;5071836;28;20524;-63
2022/04/24 14:42:07;;;;;;;15.85;2.63;;;;;;;;;;5071598;28;20044;-63
2022/04/24 14:45:11;;;;;;;9.43;1.88;;;;;;;;;;5071495;28;20044;-64
2022/04/24 14:58:24;;;;;;;14.68;2.20;;;;;;;;;;5070993;28;20401;-62
2022/04/24 15:01:28;;;;;;;9.93;1.85;;;;;;;;;;5071232;28;20052;-63
2022/04/24 15:04:34;;;;;;;14.27;2.72;;;;;;;;;;5057845;28;20032;-62
2022/04/24 15:07:38;;;;;;;10.18;1.90;;;;;;;;;;5070090;28;20060;-63
2022/04/24 15:10:46;;;;;;;9.60;2.03;;;;;;;;;;5069538;28;20192;-63
2022/04/24 15:13:50;;;;;;;6.85;1.65;;;;;;;;;;5070530;28;20052;-63
2022/04/24 15:16:54;;;;;;;9.48;1.83;;;;;;;;;;5070413;28;20370;-63
2022/04/24 15:20:02;;;;;;;10.55;2.00;;;;;;;;;;5070327;28;20040;-63
2022/04/24 15:23:07;;;;;;;8.13;1.88;;;;;;;;;;5070048;28;20047;-63
2022/04/24 15:26:11;;;;;;;7.53;1.90;;;;;;;;;;5070970;28;20472;-63
2022/04/24 15:29:19;;;;;;;8.65;1.73;;;;;;;;;;5070363;28;20072;-63
2022/04/24 15:32:23;;;;;;;9.38;1.60;;;;;;;;;;5070901;28;20029;-62
2022/04/24 15:35:28;;;;;;;12.82;2.10;;;;;;;;;;5071025;28;20044;-63
2022/04/24 15:38:33;;;;;;;13.52;2.30;;;;;;;;;;5070671;28;20063;-63
2022/04/24 15:41:37;;;;;;;14.60;2.30;;;;;;;;;;5070763;28;20047;-63
2022/04/24 15:48:16;;;;;;;13.38;2.28;;;;;;;;;;5074802;28;20059;-63
2022/04/24 15:51:21;;;;;;;12.80;2.65;;;;;;;;;;5070720;28;20043;-63
2022/04/24 15:54:25;;;;;;;8.13;2.10;;;;;;;;;;5070476;28;20043;-63
2022/04/24 15:57:30;;;;;;;15.32;3.67;;;;;;;;;;5069422;28;20037;-63
2022/04/24 16:00:35;;;;;;;15.23;2.30;;;;;;;;;;5070482;28;20048;-63
2022/04/24 16:03:39;;;;;;;11.05;2.10;;;;;;;;;;5070747;28;20063;-63
2022/04/24 16:06:43;;;;;;;16.02;2.50;;;;;;;;;;5069949;28;20059;-63
2022/04/24 16:09:48;;;;;;;14.55;2.33;;;;;;;;;;5072183;28;20060;-63
2022/04/24 16:12:52;;;;;;;11.20;2.08;;;;;;;;;;5074628;28;20055;-63
2022/04/24 16:15:57;;;;;;;12.98;2.35;;;;;;;;;;5074290;28;20122;-63
2022/04/24 16:19:02;;;;;;;16.85;2.42;;;;;;;;;;5074243;28;20040;-63
2022/04/24 16:22:09;;;;;;;10.60;2.63;;;;;;;;;;5074286;28;20052;-63
2022/04/24 16:25:15;;;;;;;12.30;1.88;;;;;;;;;;5074002;28;20040;-63
2022/04/24 16:28:19;;;;;;;11.52;2.13;;;;;;;;;;5073045;28;20059;-63
2022/04/24 16:31:24;;;;;;;13.65;3.25;;;;;;;;;;5074172;28;20036;-62
2022/04/24 16:34:28;;;;;;;11.63;2.05;;;;;;;;;;5073415;28;20400;-63
2022/04/24 16:37:33;;;;;;;14.07;2.65;;;;;;;;;;5072916;28;20031;-64
2022/04/24 16:40:37;;;;;;;13.32;2.03;;;;;;;;;;5072903;28;20526;-63
2022/04/24 16:43:42;;;;;;;6.93;1.80;;;;;;;;;;5074144;28;20063;-62
2022/04/24 16:46:47;;;;;;;15.10;2.53;;;;;;;;;;5073629;28;20048;-62
2022/04/24 16:49:52;;;;;;;13.73;1.92;;;;;;;;;;5073613;28;20052;-62
2022/04/24 16:59:43;;;;;;;13.07;2.20;;;;;;;;;;5073681;28;20040;-62
2022/04/24 17:02:48;;;;;;;10.18;2.13;;;;;;;;;;5073186;28;20063;-62
2022/04/24 17:05:52;;;;;;;9.93;2.38;;;;;;;;;;5072344;28;20043;-63
2022/04/24 17:08:57;;;;;;;12.68;2.80;;;;;;;;;;5073213;28;20049;-63
2022/04/24 17:12:02;;;;;;;12.30;2.53;;;;;;;;;;5072100;28;20043;-62
2022/04/24 17:15:07;;;;;;;9.13;2.05;;;;;;;;;;5071461;28;20451;-62
2022/04/24 17:18:11;;;;;;;9.32;2.17;;;;;;;;;;5073253;28;20037;-62
2022/04/24 17:21:17;;;;;;;17.15;2.47;;;;;;;;;;5073106;28;20045;-63
2022/04/24 17:24:21;;;;;;;11.15;2.38;;;;;;;;;;5073444;28;20047;-63
2022/04/24 17:27:25;;;;;;;15.55;2.60;;;;;;;;;;5072318;28;20059;-63
2022/04/24 17:30:30;;;;;;;18.98;3.35;;;;;;;;;;5073134;28;20048;-63
2022/04/24 17:33:35;;;;;;;17.55;3.00;;;;;;;;;;5073083;28;20051;-63
2022/04/24 17:36:41;;;;;;;18.55;2.72;;;;;;;;;;5072703;28;20047;-63
2022/04/24 17:39:45;;;;;;;21.10;3.47;;;;;;;;;;5072820;28;20053;-63
2022/04/24 17:42:52;;;;;;;15.25;2.55;;;;;;;;;;5072625;28;20036;-63
2022/04/24 17:45:57;;;;;;;14.02;2.60;;;;;;;;;;5072554;28;20044;-63
2022/04/24 17:49:02;;;;;;;15.60;2.78;;;;;;;;;;5072507;28;20658;-63
2022/04/24 17:52:11;;;;;;;16.75;3.35;;;;;;;;;;5072717;28;20039;-63
2022/04/24 17:55:15;;;;;;;21.33;3.83;;;;;;;;;;5072371;28;20495;-63
2022/04/24 17:58:20;;;;;;;16.63;3.38;;;;;;;;;;5072292;28;20095;-63
2022/04/24 18:01:24;;;;;;;13.43;3.00;;;;;;;;;;5072004;28;20043;-63
2022/04/24 18:04:29;;;;;;;15.43;3.08;;;;;;;;;;5072419;28;20047;-63
2022/04/24 18:07:33;;;;;;;16.80;2.75;;;;;;;;;;5071981;28;20083;-63
2022/04/24 18:10:38;;;;;;;16.33;3.97;;;;;;;;;;5072352;28;20043;-63
2022/04/24 18:13:45;;;;;;;17.67;3.80;;;;;;;;;;5072212;28;20524;-63
2022/04/24 18:16:50;;;;;;;21.40;3.70;;;;;;;;;;5072018;28;20047;-63
2022/04/24 18:19:54;;;;;;;26.65;3.60;;;;;;;;;;5071813;28;20044;-63
2022/04/24 18:23:00;;;;;;;20.08;4.05;;;;;;;;;;5072091;28;20043;-62
2022/04/24 18:26:04;;;;;;;20.25;4.43;;;;;;;;;;5071445;28;20492;-62
2022/04/24 18:29:08;;;;;;;21.33;4.47;;;;;;;;;;5071848;28;20044;-62
2022/04/24 18:32:13;;;;;;;20.80;4.13;;;;;;;;;;5071148;28;20042;-62
2022/04/24 18:35:18;;;;;;;23.10;3.85;;;;;;;;;;5071540;28;20400;-62
2022/04/24 18:38:23;;;;;;;23.52;3.97;;;;;;;;;;5071433;28;20044;-62